createdAt,value
2022-08-19T00:02:17.907Z,22.00
2022-08-19T00:04:47.758Z,21.90
2022-08-19T00:07:14.777Z,21.80
2022-08-19T00:09:41.734Z,21.80
2022-08-19T00:12:09.782Z,21.80
2022-08-19T00:14:37.293Z,21.90
2022-08-19T00:17:05.729Z,21.80
2022-08-19T00:19:33.071Z,21.60
2022-08-19T00:22:00.118Z,21.60
2022-08-19T00:24:28.196Z,21.70
2022-08-19T00:26:56.281Z,21.60
2022-08-19T00:29:26.174Z,21.50
2022-08-19T00:31:57.781Z,21.50
2022-08-19T00:34:29.630Z,21.50
2022-08-19T00:36:57.598Z,21.60
2022-08-19T00:39:26.315Z,21.60
2022-08-19T00:41:53.774Z,21.50
2022-08-19T00:44:26.897Z,21.40
2022-08-19T00:46:58.480Z,21.40
2022-08-19T00:50:17.245Z,21.40
2022-08-19T00:52:47.730Z,21.40
2022-08-19T00:55:19.624Z,21.30
2022-08-19T00:57:56.054Z,21.10
2022-08-19T01:00:25.751Z,21.00
2022-08-19T01:02:53.923Z,21.00
2022-08-19T01:05:30.874Z,21.00
2022-08-19T01:08:11.362Z,20.90
2022-08-19T01:10:47.229Z,20.90
2022-08-19T01:13:29.850Z,20.80
2022-08-19T01:16:22.561Z,20.80
2022-08-19T01:18:51.895Z,20.70
2022-08-19T01:21:41.886Z,20.60
2022-08-19T01:24:08.936Z,20.70
2022-08-19T01:26:42.860Z,20.70
2022-08-19T01:29:14.899Z,20.70
2022-08-19T01:31:43.180Z,20.50
2022-08-19T01:34:13.209Z,20.50
2022-08-19T01:36:46.517Z,20.60
2022-08-19T01:39:22.569Z,20.60
2022-08-19T01:41:50.597Z,20.70
2022-08-19T01:44:21.463Z,20.60
2022-08-19T01:46:49.616Z,20.50
2022-08-19T01:49:24.312Z,20.50
2022-08-19T01:51:53.068Z,20.40
2022-08-19T01:54:27.498Z,20.40
2022-08-19T01:57:09.797Z,20.20
2022-08-19T01:59:40.476Z,20.30
2022-08-19T02:02:09.412Z,20.20
2022-08-19T02:04:39.053Z,20.00
2022-08-19T02:07:06.704Z,20.10
2022-08-19T02:09:33.840Z,20.00
2022-08-19T02:12:02.363Z,20.00
2022-08-19T02:14:29.193Z,20.00
2022-08-19T02:16:56.114Z,20.00
2022-08-19T02:19:24.062Z,20.00
2022-08-19T02:21:51.019Z,20.00
2022-08-19T02:24:20.157Z,19.90
2022-08-19T02:26:48.164Z,19.90
2022-08-19T02:29:16.056Z,19.90
2022-08-19T02:31:44.014Z,19.80
2022-08-19T02:34:10.959Z,19.80
2022-08-19T02:36:42.566Z,19.80
2022-08-19T02:39:10.939Z,19.70
2022-08-19T02:41:38.162Z,19.60
2022-08-19T02:44:29.857Z,19.70
2022-08-19T02:46:52.682Z,19.70
2022-08-19T02:49:20.731Z,19.60
2022-08-19T02:51:48.795Z,19.60
2022-08-19T02:54:17.298Z,19.40
2022-08-19T02:56:46.561Z,19.30
2022-08-19T02:59:15.427Z,19.40
2022-08-19T03:01:43.527Z,19.50
2022-08-19T03:04:16.593Z,19.60
2022-08-19T03:06:46.784Z,19.50
2022-08-19T03:09:15.157Z,19.50
2022-08-19T03:11:42.242Z,19.40
2022-08-19T03:14:10.578Z,19.40
2022-08-19T03:16:53.210Z,19.40
2022-08-19T03:19:24.793Z,19.40
2022-08-19T03:21:53.382Z,19.30
2022-08-19T03:24:21.149Z,19.20
2022-08-19T03:26:52.446Z,19.20
2022-08-19T03:29:30.294Z,19.20
2022-08-19T03:32:08.596Z,19.30
2022-08-19T03:34:55.614Z,19.30
2022-08-19T03:37:23.497Z,19.10
2022-08-19T03:39:51.474Z,19.10
2022-08-19T03:42:30.079Z,19.20
2022-08-19T03:45:05.510Z,19.20
2022-08-19T03:47:33.464Z,19.20
2022-08-19T03:50:01.446Z,19.30
2022-08-19T03:52:28.366Z,19.10
2022-08-19T03:54:55.239Z,19.00
2022-08-19T03:57:32.112Z,18.90
2022-08-19T04:00:03.694Z,18.90
2022-08-19T04:02:39.805Z,18.90
2022-08-19T04:05:09.073Z,18.90
2022-08-19T04:07:36.910Z,19.00
2022-08-19T04:10:05.308Z,19.00
2022-08-19T04:12:35.969Z,18.90
2022-08-19T04:15:07.059Z,18.60
2022-08-19T04:17:35.035Z,18.40
2022-08-19T04:20:07.147Z,18.30
2022-08-19T04:22:34.129Z,18.20
2022-08-19T04:25:02.525Z,18.20
2022-08-19T04:27:30.255Z,18.30
2022-08-19T04:29:59.238Z,18.20
2022-08-19T04:32:27.263Z,18.00
2022-08-19T04:35:02.828Z,18.00
2022-08-19T04:37:44.518Z,17.90
2022-08-19T04:40:31.292Z,17.80
2022-08-19T04:43:02.357Z,17.80
2022-08-19T04:45:39.652Z,17.70
2022-08-19T04:48:26.704Z,17.70
2022-08-19T04:51:00.099Z,17.70
2022-08-19T04:53:37.713Z,17.70
2022-08-19T04:56:12.409Z,17.70
2022-08-19T04:58:43.389Z,17.70
2022-08-19T05:01:13.627Z,17.70
2022-08-19T05:03:40.936Z,17.70
2022-08-19T05:06:15.070Z,17.60
2022-08-19T05:08:44.641Z,17.50
2022-08-19T05:11:26.388Z,17.60
2022-08-19T05:13:57.874Z,17.60
2022-08-19T05:16:27.203Z,17.50
2022-08-19T05:19:14.708Z,17.60
2022-08-19T05:22:02.384Z,17.50
2022-08-19T05:24:31.194Z,17.50
2022-08-19T05:26:58.349Z,17.50
2022-08-19T05:29:29.979Z,17.50
2022-08-19T05:32:06.046Z,17.50
2022-08-19T05:34:34.457Z,17.50
2022-08-19T05:37:05.541Z,17.50
2022-08-19T05:39:35.261Z,17.50
2022-08-19T05:42:08.953Z,17.50
2022-08-19T05:44:44.935Z,17.60
2022-08-19T05:47:15.826Z,17.60
2022-08-19T05:50:08.278Z,17.70
2022-08-19T05:52:39.168Z,17.70
2022-08-19T05:55:11.594Z,17.70
2022-08-19T05:57:41.049Z,17.80
2022-08-19T06:00:12.158Z,17.80
2022-08-19T06:02:39.992Z,17.80
2022-08-19T06:05:08.375Z,17.90
2022-08-19T06:07:36.382Z,18.10
2022-08-19T06:10:13.566Z,18.20
2022-08-19T06:12:41.661Z,18.20
2022-08-19T06:15:11.679Z,18.30
2022-08-19T06:17:38.902Z,18.20
2022-08-19T06:20:14.370Z,18.20
2022-08-19T06:22:44.974Z,18.30
2022-08-19T06:25:15.690Z,18.40
2022-08-19T06:30:30.703Z,18.40
2022-08-19T06:32:59.681Z,18.40
2022-08-19T06:35:26.603Z,18.50
2022-08-19T06:37:54.682Z,18.60
2022-08-19T06:40:21.877Z,18.70
2022-08-19T06:42:54.955Z,18.70
2022-08-19T06:45:25.180Z,18.80
2022-08-19T06:48:01.809Z,18.80
2022-08-19T06:50:28.708Z,18.90
2022-08-19T06:52:55.745Z,19.20
2022-08-19T06:55:22.791Z,19.40
2022-08-19T06:57:54.543Z,19.50
2022-08-19T07:00:21.882Z,19.40
2022-08-19T07:02:55.798Z,19.30
2022-08-19T07:05:26.395Z,19.30
2022-08-19T07:07:58.237Z,19.40
2022-08-19T07:10:28.632Z,19.50
2022-08-19T07:12:56.572Z,19.40
2022-08-19T07:15:24.583Z,19.40
2022-08-19T07:17:52.612Z,19.40
2022-08-19T07:20:19.837Z,19.40
2022-08-19T07:22:46.775Z,19.60
2022-08-19T07:25:14.279Z,19.70
2022-08-19T07:27:41.142Z,19.80
2022-08-19T07:30:12.166Z,20.00
2022-08-19T07:32:40.060Z,20.20
2022-08-19T07:35:08.336Z,20.40
2022-08-19T07:37:38.216Z,20.30
2022-08-19T07:40:08.439Z,20.10
2022-08-19T07:42:40.132Z,20.10
2022-08-19T07:45:09.124Z,20.30
2022-08-19T07:47:47.930Z,20.50
2022-08-19T07:50:20.364Z,20.60
2022-08-19T07:52:51.056Z,20.70
2022-08-19T07:55:41.061Z,20.70
2022-08-19T07:58:13.399Z,20.80
2022-08-19T08:00:43.016Z,20.70
2022-08-19T08:03:10.198Z,20.70
2022-08-19T08:05:55.601Z,20.90
2022-08-19T08:08:44.066Z,21.20
2022-08-19T08:11:21.226Z,21.20
2022-08-19T08:14:00.921Z,21.20
2022-08-19T08:16:46.803Z,21.00
2022-08-19T08:19:22.986Z,21.00
2022-08-19T08:21:54.910Z,21.00
2022-08-19T08:24:23.439Z,21.00
2022-08-19T08:26:57.821Z,20.70
2022-08-19T08:29:26.205Z,20.90
2022-08-19T08:31:58.449Z,20.90
2022-08-19T08:34:27.671Z,20.90
2022-08-19T08:36:55.629Z,20.90
2022-08-19T08:39:23.168Z,21.10
2022-08-19T08:42:18.576Z,20.90
2022-08-19T08:45:05.957Z,20.80
2022-08-19T08:47:41.902Z,20.80
2022-08-19T08:50:37.010Z,20.70
2022-08-19T08:53:06.425Z,20.70
2022-08-19T08:55:36.914Z,20.60
2022-08-19T08:58:15.024Z,20.70
2022-08-19T09:00:46.985Z,20.80
2022-08-19T09:03:21.451Z,21.20
2022-08-19T09:06:01.274Z,21.60
2022-08-19T09:08:50.495Z,21.60
2022-08-19T09:11:46.517Z,21.40
2022-08-19T09:14:51.129Z,21.40
2022-08-19T09:17:20.509Z,21.40
2022-08-19T09:19:55.892Z,21.40
2022-08-19T09:22:27.935Z,21.30
2022-08-19T09:24:57.344Z,21.30
2022-08-19T09:27:41.929Z,21.20
2022-08-19T09:30:16.578Z,21.10
2022-08-19T09:32:44.404Z,21.00
2022-08-19T09:35:15.168Z,21.30
2022-08-19T09:37:43.901Z,21.30
2022-08-19T09:40:16.859Z,21.20
2022-08-19T09:42:50.042Z,21.10
2022-08-19T09:45:23.000Z,21.10
2022-08-19T09:47:53.901Z,21.30
2022-08-19T09:50:24.654Z,21.30
2022-08-19T09:52:57.297Z,21.30
2022-08-19T09:55:31.455Z,21.30
2022-08-19T09:58:02.423Z,21.30
2022-08-19T10:00:37.876Z,21.30
2022-08-19T10:03:05.993Z,21.30
2022-08-19T10:05:49.070Z,21.30
2022-08-19T10:08:27.063Z,21.30
2022-08-19T10:10:55.902Z,21.60
2022-08-19T10:13:27.268Z,21.60
2022-08-19T10:15:58.003Z,21.60
2022-08-19T10:18:26.528Z,21.50
2022-08-19T10:21:03.247Z,21.60
2022-08-19T10:23:30.708Z,21.70
2022-08-19T10:26:01.458Z,21.80
2022-08-19T10:28:28.314Z,21.50
2022-08-19T10:30:57.280Z,21.50
2022-08-19T10:33:38.829Z,21.40
2022-08-19T10:36:18.941Z,21.30
2022-08-19T10:38:52.386Z,21.40
2022-08-19T10:41:26.984Z,21.70
2022-08-19T10:44:04.193Z,21.90
2022-08-19T10:46:35.205Z,21.80
2022-08-19T10:49:06.672Z,21.70
2022-08-19T10:51:52.541Z,21.50
2022-08-19T10:54:31.221Z,21.50
2022-08-19T10:57:06.771Z,21.60
2022-08-19T10:59:36.102Z,21.80
2022-08-19T11:02:11.191Z,22.00
2022-08-19T11:04:40.302Z,21.90
2022-08-19T11:07:09.949Z,22.00
2022-08-19T11:09:51.538Z,21.90
2022-08-19T11:12:18.468Z,22.00
2022-08-19T11:14:49.998Z,22.00
2022-08-19T11:17:17.294Z,22.30
2022-08-19T11:19:48.342Z,22.50
2022-08-19T11:22:17.702Z,22.80
2022-08-19T11:24:50.748Z,22.40
2022-08-19T11:27:46.127Z,22.10
2022-08-19T11:30:16.969Z,22.00
2022-08-19T11:32:49.227Z,21.90
2022-08-19T11:35:20.376Z,21.80
2022-08-19T11:37:47.791Z,21.80
2022-08-19T11:40:16.212Z,21.80
2022-08-19T11:42:57.776Z,21.80
2022-08-19T11:45:31.332Z,21.80
2022-08-19T11:48:03.166Z,21.90
2022-08-19T11:50:30.340Z,22.00
2022-08-19T11:53:00.908Z,22.00
2022-08-19T11:55:27.949Z,22.10
2022-08-19T11:57:56.022Z,22.10
2022-08-19T12:00:25.177Z,22.40
2022-08-19T12:02:53.049Z,22.60
2022-08-19T12:05:21.040Z,23.10
2022-08-19T12:07:49.201Z,23.40
2022-08-19T12:10:19.446Z,23.80
2022-08-19T12:12:54.638Z,24.40
2022-08-19T12:15:28.809Z,24.20
2022-08-19T12:18:06.215Z,24.10
2022-08-19T12:20:43.100Z,24.00
2022-08-19T12:23:11.601Z,24.00
2022-08-19T12:25:51.143Z,24.30
2022-08-19T12:28:24.562Z,24.70
2022-08-19T12:30:52.662Z,25.10
2022-08-19T12:33:25.007Z,24.90
2022-08-19T12:36:00.708Z,24.70
2022-08-19T12:38:31.689Z,24.70
2022-08-19T12:41:00.483Z,24.70
2022-08-19T12:43:32.174Z,24.60
2022-08-19T12:46:00.201Z,24.70
2022-08-19T12:48:33.877Z,24.90
2022-08-19T12:51:07.592Z,25.10
2022-08-19T12:53:34.721Z,24.70
2022-08-19T12:56:07.455Z,24.40
2022-08-19T12:58:50.258Z,24.30
2022-08-19T13:01:22.954Z,24.10
2022-08-19T13:03:54.835Z,24.10
2022-08-19T13:06:25.010Z,24.40
2022-08-19T13:08:56.528Z,25.00
2022-08-19T13:11:26.165Z,25.00
2022-08-19T13:13:56.201Z,25.20
2022-08-19T13:16:24.840Z,25.60
2022-08-19T13:18:54.563Z,25.40
2022-08-19T13:21:24.353Z,25.00
2022-08-19T13:23:54.066Z,24.80
2022-08-19T13:26:22.989Z,24.60
2022-08-19T13:29:09.886Z,24.40
2022-08-19T13:32:00.648Z,24.30
2022-08-19T13:34:34.912Z,24.30
2022-08-19T13:37:05.143Z,24.60
2022-08-19T13:39:34.824Z,25.10
2022-08-19T13:42:06.585Z,25.70
2022-08-19T13:44:35.568Z,26.10
2022-08-19T13:47:09.554Z,25.80
2022-08-19T13:49:37.375Z,25.30
2022-08-19T13:52:06.437Z,25.00
2022-08-19T13:54:39.541Z,25.10
2022-08-19T13:57:07.100Z,24.80
2022-08-19T13:59:36.322Z,24.80
2022-08-19T14:02:06.517Z,25.10
2022-08-19T14:04:35.711Z,25.10
2022-08-19T14:07:05.766Z,24.70
2022-08-19T14:09:32.684Z,24.50
2022-08-19T14:12:01.715Z,24.40
2022-08-19T14:14:30.211Z,24.70
2022-08-19T14:16:58.203Z,24.90
2022-08-19T14:19:25.214Z,24.90
2022-08-19T14:21:58.559Z,24.80
2022-08-19T14:24:25.695Z,24.90
2022-08-19T14:26:52.618Z,25.20
2022-08-19T14:29:21.783Z,25.20
2022-08-19T14:31:49.377Z,24.80
2022-08-19T14:34:17.454Z,24.90
2022-08-19T14:36:46.008Z,24.80
2022-08-19T14:39:16.151Z,24.40
2022-08-19T14:41:44.388Z,24.40
2022-08-19T14:44:15.740Z,23.70
2022-08-19T14:46:49.560Z,23.10
2022-08-19T14:49:18.998Z,22.80
2022-08-19T14:51:47.921Z,22.60
2022-08-19T14:54:14.984Z,22.60
2022-08-19T14:56:43.038Z,22.80
2022-08-19T14:59:11.598Z,23.00
2022-08-19T15:01:39.711Z,23.10
2022-08-19T15:04:06.869Z,23.20
2022-08-19T15:06:34.145Z,23.60
2022-08-19T15:09:04.571Z,23.80
2022-08-19T15:11:33.749Z,24.20
2022-08-19T15:14:02.414Z,24.20
2022-08-19T15:16:30.357Z,23.90
2022-08-19T15:18:59.957Z,23.80
2022-08-19T15:21:29.410Z,23.70
2022-08-19T15:23:58.124Z,23.70
2022-08-19T15:26:28.908Z,23.70
2022-08-19T15:28:56.027Z,23.80
2022-08-19T15:31:25.207Z,24.00
2022-08-19T15:33:58.236Z,24.00
2022-08-19T15:36:28.452Z,23.90
2022-08-19T15:38:57.276Z,23.90
2022-08-19T15:41:29.023Z,23.60
2022-08-19T15:44:08.966Z,23.60
2022-08-19T15:46:39.775Z,23.60
2022-08-19T15:49:10.627Z,23.50
2022-08-19T15:51:41.982Z,23.80
2022-08-19T15:54:12.767Z,23.80
2022-08-19T15:56:59.234Z,23.70
2022-08-19T15:59:47.808Z,23.90
2022-08-19T16:02:37.160Z,24.00
2022-08-19T16:05:29.327Z,23.90
2022-08-19T16:07:58.470Z,24.00
2022-08-19T16:10:28.098Z,23.80
2022-08-19T16:12:57.554Z,23.90
2022-08-19T16:15:28.022Z,24.00
2022-08-19T16:17:58.009Z,24.10
2022-08-19T16:20:27.980Z,24.00
2022-08-19T16:23:03.534Z,24.10
2022-08-19T16:25:30.806Z,24.20
2022-08-19T16:28:07.606Z,24.20
2022-08-19T16:30:38.712Z,24.30
2022-08-19T16:33:06.881Z,24.40
2022-08-19T16:35:34.157Z,24.40
2022-08-19T16:38:02.752Z,24.40
2022-08-19T16:40:29.767Z,24.20
2022-08-19T16:42:56.812Z,23.90
2022-08-19T16:45:25.213Z,23.50
2022-08-19T16:47:52.234Z,23.50
2022-08-19T16:50:25.372Z,23.60
2022-08-19T16:52:58.451Z,23.60
2022-08-19T16:55:28.318Z,23.20
2022-08-19T16:57:55.556Z,22.80
2022-08-19T17:00:25.595Z,22.70
2022-08-19T17:02:54.613Z,22.70
2022-08-19T17:05:23.036Z,22.70
2022-08-19T17:07:50.121Z,22.60
2022-08-19T17:10:18.227Z,22.50
2022-08-19T17:12:45.279Z,22.40
2022-08-19T17:15:13.736Z,22.40
2022-08-19T17:17:41.123Z,22.40
2022-08-19T17:20:09.613Z,22.40
2022-08-19T17:22:37.951Z,22.40
2022-08-19T17:25:06.450Z,22.60
2022-08-19T17:27:35.398Z,22.60
2022-08-19T17:30:05.179Z,22.70
2022-08-19T17:32:34.790Z,22.70
2022-08-19T17:35:05.424Z,22.20
2022-08-19T17:37:33.566Z,21.80
2022-08-19T17:40:07.187Z,21.60
2022-08-19T17:42:36.697Z,21.30
2022-08-19T17:45:06.163Z,21.20
2022-08-19T17:47:37.980Z,21.20
2022-08-19T17:50:09.849Z,21.20
2022-08-19T17:52:38.595Z,21.20
2022-08-19T17:55:07.939Z,21.20
2022-08-19T17:57:35.028Z,21.20
2022-08-19T18:00:06.176Z,21.20
2022-08-19T18:02:51.040Z,21.10
2022-08-19T18:05:26.588Z,21.10
2022-08-19T18:07:57.351Z,21.10
2022-08-19T18:10:35.195Z,21.00
2022-08-19T18:13:17.021Z,21.10
2022-08-19T18:15:45.583Z,21.10
2022-08-19T18:18:14.934Z,21.10
2022-08-19T18:20:43.222Z,21.10
2022-08-19T18:23:43.827Z,21.10
2022-08-19T18:25:59.821Z,21.20
2022-08-19T18:28:27.963Z,21.20
2022-08-19T18:30:57.621Z,21.20
2022-08-19T18:33:25.537Z,21.20
2022-08-19T18:35:53.681Z,21.20
2022-08-19T18:38:41.543Z,21.10
2022-08-19T18:41:28.469Z,21.10
2022-08-19T18:44:15.043Z,21.10
2022-08-19T18:47:01.634Z,21.10
2022-08-19T18:49:32.537Z,21.10
2022-08-19T18:52:01.482Z,21.10
2022-08-19T18:54:28.939Z,21.10
2022-08-19T18:56:55.939Z,21.10
2022-08-19T18:59:28.053Z,21.20
2022-08-19T19:02:00.770Z,21.20
2022-08-19T19:04:36.919Z,21.20
2022-08-19T19:07:08.812Z,21.20
2022-08-19T19:09:38.396Z,21.30
2022-08-19T19:12:10.995Z,21.40
2022-08-19T19:14:49.234Z,21.50
2022-08-19T19:17:18.341Z,21.40
2022-08-19T19:19:45.672Z,21.40
2022-08-19T19:22:19.507Z,21.40
2022-08-19T19:24:48.899Z,21.30
2022-08-19T19:27:20.344Z,21.30
2022-08-19T19:29:52.231Z,21.30
2022-08-19T19:32:39.012Z,21.40
2022-08-19T19:35:10.709Z,21.40
2022-08-19T19:37:43.363Z,21.40
2022-08-19T19:40:13.285Z,21.30
2022-08-19T19:42:41.661Z,21.30
2022-08-19T19:45:10.029Z,21.30
2022-08-19T19:47:38.203Z,21.30
2022-08-19T19:50:15.275Z,21.30
2022-08-19T19:52:45.706Z,21.20
2022-08-19T19:55:18.552Z,21.10
2022-08-19T19:57:49.875Z,21.00
2022-08-19T20:00:18.912Z,21.00
2022-08-19T20:02:50.491Z,20.90
2022-08-19T20:05:23.319Z,20.90
2022-08-19T20:08:11.172Z,20.90
2022-08-19T20:10:42.564Z,20.90
2022-08-19T20:13:15.653Z,20.90
2022-08-19T20:15:44.393Z,20.80
2022-08-19T20:18:14.425Z,20.90
2022-08-19T20:20:49.955Z,21.00
2022-08-19T20:23:20.237Z,21.10
2022-08-19T20:25:51.320Z,21.20
2022-08-19T20:28:21.388Z,21.30
2022-08-19T20:30:48.972Z,21.30
2022-08-19T20:33:16.089Z,21.20
2022-08-19T20:35:46.359Z,21.40
2022-08-19T20:38:13.608Z,21.00
2022-08-19T20:40:46.754Z,20.90
2022-08-19T20:43:14.027Z,20.90
2022-08-19T20:45:42.014Z,20.80
2022-08-19T20:48:12.261Z,20.90
2022-08-19T20:50:41.198Z,20.90
2022-08-19T20:53:14.481Z,20.80
2022-08-19T20:55:45.320Z,20.70
2022-08-19T20:58:13.638Z,20.70
2022-08-19T21:00:45.567Z,20.50
2022-08-19T21:03:16.361Z,20.40
2022-08-19T21:05:43.539Z,20.40
2022-08-19T21:08:11.782Z,20.30
2022-08-19T21:10:42.487Z,20.30
2022-08-19T21:13:09.571Z,20.30
2022-08-19T21:16:05.247Z,20.30
2022-08-19T21:18:38.605Z,20.30
2022-08-19T21:21:05.715Z,20.30
2022-08-19T21:23:32.616Z,20.30
2022-08-19T21:26:01.021Z,20.30
2022-08-19T21:28:34.564Z,20.30
2022-08-19T21:31:04.200Z,20.20
2022-08-19T21:33:32.174Z,20.20
2022-08-19T21:36:01.291Z,20.20
2022-08-19T21:38:28.163Z,20.20
2022-08-19T21:40:55.767Z,20.30
2022-08-19T21:43:23.648Z,20.30
2022-08-19T21:45:51.106Z,20.20
2022-08-19T21:48:19.467Z,20.10
2022-08-19T21:51:12.520Z,20.20
2022-08-19T21:53:39.495Z,20.20
2022-08-19T21:56:06.925Z,20.20
2022-08-19T21:58:36.741Z,20.20
2022-08-19T22:01:08.369Z,20.10
2022-08-19T22:03:37.197Z,20.10
2022-08-19T22:06:05.961Z,20.00
2022-08-19T22:08:34.826Z,20.00
2022-08-19T22:11:03.645Z,20.00
2022-08-19T22:13:39.995Z,20.00
2022-08-19T22:16:07.658Z,19.90
2022-08-19T22:18:35.371Z,20.00
2022-08-19T22:21:03.050Z,20.00
2022-08-19T22:23:30.055Z,19.90
2022-08-19T22:25:57.098Z,19.90
2022-08-19T22:28:27.910Z,19.80
2022-08-19T22:30:56.517Z,19.80
2022-08-19T22:33:25.930Z,19.90
2022-08-19T22:35:53.766Z,20.00
2022-08-19T22:38:20.711Z,20.00
2022-08-19T22:40:51.003Z,20.00
2022-08-19T22:44:01.402Z,20.00
2022-08-19T22:46:34.456Z,20.00
2022-08-19T22:49:11.164Z,20.00
2022-08-19T22:51:57.171Z,20.20
2022-08-19T22:54:24.630Z,20.30
2022-08-19T22:59:35.807Z,20.20
2022-08-19T23:02:02.976Z,20.00
2022-08-19T23:04:33.181Z,20.00
2022-08-19T23:07:01.902Z,19.90
2022-08-19T23:09:39.786Z,19.90
2022-08-19T23:12:18.626Z,19.80
2022-08-19T23:14:56.262Z,19.70
2022-08-19T23:17:26.801Z,19.60
2022-08-19T23:19:56.284Z,19.50
2022-08-19T23:22:25.013Z,19.40
2022-08-19T23:24:55.983Z,19.40
2022-08-19T23:27:43.539Z,19.40
2022-08-19T23:30:27.986Z,19.30
2022-08-19T23:33:12.851Z,19.10
2022-08-19T23:35:50.839Z,19.00
2022-08-19T23:38:23.885Z,19.00
2022-08-19T23:40:55.244Z,18.90
2022-08-19T23:43:25.431Z,18.80
2022-08-19T23:45:57.681Z,18.80
2022-08-19T23:48:33.729Z,18.80
2022-08-19T23:51:10.753Z,18.70
2022-08-19T23:53:47.239Z,18.80
2022-08-19T23:56:16.132Z,18.80
2022-08-19T23:58:44.326Z,18.60
